Time;durP1;ratioP1;P1;durP2;ratioP2;P2;SDS_P1;SDS_P2;PMS_P1;PMS_P2;Temp;Humidity;BMP_temperature;BMP_pressure;BME280_temperature;BME280_humidity;BME280_pressure;Samples;Min_cycle;Max_cycle;Signal;HPM_P1;HPM_P2
2022/01/09 00:01:43;;;;;;;;;7.75;7.00;;;;;20.44;44.45;99173.72;5061151;28;45540;-73
2022/01/09 00:04:08;;;;;;;;;8.50;8.00;;;;;20.48;44.77;99185.84;5060574;28;47097;-73
2022/01/09 00:06:34;;;;;;;;;11.75;9.25;;;;;20.46;44.68;99198.34;5061550;28;45668;-73
2022/01/09 00:08:59;;;;;;;;;6.75;6.75;;;;;20.49;44.25;99201.66;5061353;28;45950;-73
2022/01/09 00:11:26;;;;;;;;;10.00;9.00;;;;;20.46;44.61;99206.28;5060112;28;45247;-73
2022/01/09 00:13:55;;;;;;;;;9.25;8.50;;;;;20.49;44.35;99206.13;5060204;28;45451;-73
2022/01/09 00:16:20;;;;;;;;;9.50;8.00;;;;;20.50;44.39;99221.97;5059901;28;46318;-74
2022/01/09 00:18:49;;;;;;;;;9.00;9.00;;;;;20.51;44.56;99228.09;5043341;28;45312;-73
2022/01/09 00:21:14;;;;;;;;;8.00;6.50;;;;;20.49;44.10;99224.66;5060025;28;45275;-73
2022/01/09 00:23:41;;;;;;;;;9.00;7.25;;;;;20.49;44.53;99235.25;5060758;28;63623;-73
2022/01/09 00:26:07;;;;;;;;;8.00;7.50;;;;;20.48;44.61;99246.81;5043230;28;45415;-73
2022/01/09 00:28:33;;;;;;;;;11.25;8.50;;;;;20.46;44.02;99246.91;5061574;28;45319;-73
2022/01/09 00:30:58;;;;;;;;;6.00;6.00;;;;;20.48;44.17;99246.81;5042877;28;45461;-73
2022/01/09 00:33:24;;;;;;;;;6.25;6.25;;;;;20.48;44.28;99252.09;5043046;28;46238;-73
2022/01/09 00:35:50;;;;;;;;;9.00;8.75;;;;;20.45;43.86;99247.00;5061100;28;45393;-73
2022/01/09 00:38:16;;;;;;;;;9.25;7.50;;;;;20.48;44.16;99262.72;5059951;28;45445;-73
2022/01/09 00:40:41;;;;;;;;;10.25;7.00;;;;;20.42;44.10;99257.75;5042846;28;45521;-73
2022/01/09 00:43:09;;;;;;;;;10.00;8.50;;;;;20.48;43.96;99273.31;5043019;28;46901;-73
2022/01/09 00:45:38;;;;;;;;;11.75;8.75;;;;;20.45;43.87;99286.75;5076413;28;45378;-73
2022/01/09 00:48:04;;;;;;;;;7.75;7.75;;;;;20.47;43.34;99283.06;5093095;27;45508;-73
2022/01/09 00:50:29;;;;;;;;;15.25;8.25;;;;;20.44;44.17;99280.59;5093417;27;45500;-73
2022/01/09 00:52:55;;;;;;;;;8.00;8.00;;;;;20.44;43.83;99293.84;5061062;28;46086;-73
2022/01/09 00:55:20;;;;;;;;;9.25;7.00;;;;;20.43;43.77;99296.53;5060764;28;45286;-73
2022/01/09 00:57:45;;;;;;;;;8.25;8.00;;;;;20.44;44.16;99314.19;5059834;28;45858;-73
2022/01/09 01:00:11;;;;;;;;;7.50;7.00;;;;;20.41;43.73;99311.66;5042498;28;45265;-73
2022/01/09 01:02:37;;;;;;;;;7.50;6.25;;;;;20.35;44.08;99314.66;5042681;28;47625;-73
2022/01/09 01:05:04;;;;;;;;;9.00;8.00;;;;;20.36;43.95;99324.31;5059205;28;45276;-73
2022/01/09 01:07:30;;;;;;;;;7.75;7.25;;;;;20.37;44.01;99333.97;5026330;28;45415;-73
2022/01/09 01:09:57;;;;;;;;;8.50;8.00;;;;;20.37;43.94;99347.22;5042482;28;46323;-73
2022/01/09 01:12:24;;;;;;;;;10.00;7.00;;;;;20.37;44.07;99355.16;5059194;28;46145;-73
2022/01/09 01:14:50;;;;;;;;;9.75;9.00;;;;;20.35;43.78;99360.56;5058903;28;45350;-73
2022/01/09 01:17:16;;;;;;;;;7.00;7.00;;;;;20.32;43.83;99380.09;5042673;28;45248;-73
2022/01/09 01:19:41;;;;;;;;;5.75;5.50;;;;;20.29;43.71;99380.25;5058967;28;45608;-73
2022/01/09 01:22:07;;;;;;;;;7.50;5.25;;;;;20.27;44.13;99382.16;5058045;28;47162;-73
2022/01/09 01:24:35;;;;;;;;;7.50;6.00;;;;;20.25;43.58;99380.53;5060128;28;45264;-73
2022/01/09 01:27:01;;;;;;;;;8.25;8.00;;;;;20.28;44.13;99383.84;5059190;28;45525;-73
2022/01/09 01:29:26;;;;;;;;;7.00;7.00;;;;;20.30;43.70;99399.66;5025292;28;45314;-73
2022/01/09 01:31:52;;;;;;;;;9.00;6.50;;;;;20.30;44.03;99400.53;5060466;28;45509;-73
2022/01/09 01:34:19;;;;;;;;;6.25;5.75;;;;;20.31;43.35;99411.97;5059562;28;61330;-73
2022/01/09 01:36:45;;;;;;;;;7.50;7.00;;;;;20.29;44.30;99425.31;5060794;28;45361;-73
2022/01/09 01:39:10;;;;;;;;;7.50;7.00;;;;;20.26;43.58;99430.78;5059860;28;45397;-73
2022/01/09 01:41:37;;;;;;;;;6.00;6.00;;;;;20.26;43.19;99429.91;5042161;28;45282;-73
2022/01/09 01:44:03;;;;;;;;;5.50;5.50;;;;;20.26;43.62;99435.22;5058803;28;45189;-73
2022/01/09 01:46:29;;;;;;;;;6.25;5.00;;;;;20.27;43.24;99427.19;5060242;28;45401;-74
2022/01/09 01:48:54;;;;;;;;;11.50;5.00;;;;;20.25;43.19;99421.13;5059992;28;45185;-74
2022/01/09 01:51:20;;;;;;;;;7.50;6.00;;;;;20.26;43.54;99430.78;5042433;28;46389;-73
2022/01/09 01:53:46;;;;;;;;;7.00;5.75;;;;;20.27;43.75;99445.72;5060041;28;45417;-74
2022/01/09 01:56:18;;;;;;;;;6.50;5.50;;;;;20.28;43.76;99450.09;5058997;28;45480;-73
2022/01/09 01:58:44;;;;;;;;;7.75;5.75;;;;;20.28;43.32;99463.34;5059827;28;45248;-74
2022/01/09 02:01:09;;;;;;;;;7.00;5.50;;;;;20.29;43.07;99474.78;5059739;28;46377;-73
2022/01/09 02:03:35;;;;;;;;;6.00;5.25;;;;;20.26;43.40;99470.53;5059134;28;63823;-73
2022/01/09 02:06:00;;;;;;;;;6.00;5.25;;;;;20.26;43.33;99467.88;5058791;28;45248;-73
2022/01/09 02:08:25;;;;;;;;;1.25;1.00;;;;;20.29;42.99;99486.25;5059339;28;56156;-73
2022/01/09 02:10:51;;;;;;;;;5.75;5.50;;;;;20.25;43.02;99490.00;5041345;28;57660;-74
2022/01/09 02:13:18;;;;;;;;;6.75;5.75;;;;;20.19;43.05;99489.44;5058541;28;45360;-74
2022/01/09 02:15:46;;;;;;;;;7.75;6.75;;;;;20.18;43.16;99495.69;5059916;28;45322;-73
2022/01/09 02:18:18;;;;;;;;;7.25;6.75;;;;;20.17;43.46;99502.78;5058643;28;45568;-74
2022/01/09 02:20:44;;;;;;;;;8.25;7.00;;;;;20.21;43.58;99504.31;5058433;28;46294;-74
2022/01/09 02:23:10;;;;;;;;;7.50;5.25;;;;;20.22;43.43;99499.88;5059750;28;45310;-73
2022/01/09 02:25:36;;;;;;;;;6.00;5.25;;;;;20.20;43.17;99505.25;5058521;28;45324;-73
2022/01/09 02:28:02;;;;;;;;;9.00;6.50;;;;;20.19;43.49;99519.44;5058525;28;45314;-74
2022/01/09 02:30:29;;;;;;;;;6.25;6.25;;;;;20.22;43.21;99521.06;5074737;28;47810;-74
2022/01/09 02:32:54;;;;;;;;;6.50;5.75;;;;;20.20;42.90;99510.56;5043612;28;45435;-74
2022/01/09 02:35:23;;;;;;;;;8.50;6.00;;;;;20.21;42.90;99517.56;5045043;28;45717;-74
2022/01/09 02:37:48;;;;;;;;;8.25;7.00;;;;;20.18;43.47;99523.03;5045222;28;45366;-74
2022/01/09 02:40:14;;;;;;;;;7.00;7.00;;;;;20.19;43.22;99519.44;5061496;28;45483;-74
2022/01/09 02:42:39;;;;;;;;;5.25;5.25;;;;;20.15;42.91;99520.50;5078651;28;45302;-74
2022/01/09 02:45:05;;;;;;;;;6.25;5.00;;;;;20.16;42.96;99540.81;5061493;28;45267;-74
2022/01/09 02:47:33;;;;;;;;;7.25;5.75;;;;;20.17;42.55;99544.31;5062154;28;45193;-74
2022/01/09 02:50:09;;;;;;;;;6.00;5.00;;;;;20.14;42.54;99536.50;5061606;28;46312;-74
2022/01/09 02:52:47;;;;;;;;;7.50;5.25;;;;;20.17;43.14;99544.31;5063149;28;45298;-74
2022/01/09 02:55:14;;;;;;;;;5.25;5.00;;;;;20.15;42.56;99552.31;5062889;28;45256;-74
2022/01/09 02:57:44;;;;;;;;;4.50;4.50;;;;;20.15;42.66;99547.00;5061714;28;45486;-74
2022/01/09 03:00:12;;;;;;;;;4.00;4.00;;;;;20.17;42.84;99542.50;5061086;28;45372;-74
2022/01/09 03:02:38;;;;;;;;;5.50;4.75;;;;;20.14;41.98;99545.28;5061598;28;45381;-74
2022/01/09 03:05:03;;;;;;;;;6.75;5.75;;;;;20.16;42.49;99548.75;5062579;28;45829;-74
2022/01/09 03:07:29;;;;;;;;;6.50;4.75;;;;;20.16;42.52;99554.03;5061405;28;45290;-74
2022/01/09 03:09:54;;;;;;;;;6.50;6.50;;;;;20.15;42.17;99546.16;5062278;28;46384;-74
2022/01/09 03:12:20;;;;;;;;;5.50;5.50;;;;;20.17;42.66;99569.00;5061485;28;45374;-74
2022/01/09 03:14:46;;;;;;;;;4.75;4.00;;;;;20.18;42.52;99557.47;5062480;28;45390;-74
2022/01/09 03:17:11;;;;;;;;;6.25;5.00;;;;;20.18;41.89;99556.63;5061267;28;46104;-74
2022/01/09 03:19:37;;;;;;;;;3.75;3.75;;;;;20.17;42.35;99569.00;5060923;28;45355;-74
2022/01/09 03:22:02;;;;;;;;;7.50;6.00;;;;;20.15;42.61;99562.91;5044509;28;45323;-74
2022/01/09 03:24:28;;;;;;;;;5.50;4.25;;;;;20.13;42.54;99571.84;5061075;28;45205;-74
2022/01/09 03:26:53;;;;;;;;;4.75;4.75;;;;;20.06;42.70;99563.34;5061367;28;45327;-74
2022/01/09 03:29:19;;;;;;;;;5.75;4.00;;;;;20.12;42.53;99573.66;5061615;28;56018;-74
2022/01/09 03:31:44;;;;;;;;;4.25;4.25;;;;;20.12;42.30;99576.31;5061064;28;45508;-74
2022/01/09 03:34:09;;;;;;;;;3.00;3.00;;;;;20.12;42.22;99575.44;5060578;28;55875;-74
2022/01/09 03:36:35;;;;;;;;;6.00;4.75;;;;;20.11;42.68;99582.53;5061047;28;45544;-74
2022/01/09 03:39:00;;;;;;;;;6.00;5.25;;;;;20.12;42.57;99591.34;5060266;28;60116;-73
2022/01/09 03:41:26;;;;;;;;;5.00;5.00;;;;;20.11;42.75;99598.44;5060343;28;54602;-74
2022/01/09 03:43:52;;;;;;;;;7.00;5.00;;;;;20.11;42.49;99602.88;5077090;28;45472;-74
2022/01/09 03:46:17;;;;;;;;;7.75;5.00;;;;;20.11;43.07;99611.69;5043889;28;45335;-74
2022/01/09 03:48:43;;;;;;;;;6.00;5.00;;;;;20.11;43.49;99609.03;5027111;28;46908;-74
2022/01/09 03:51:10;;;;;;;;;6.75;3.75;;;;;20.11;43.05;99616.97;5060797;28;45829;-74
2022/01/09 03:53:35;;;;;;;;;5.75;5.00;;;;;20.12;42.97;99623.97;5060828;28;45307;-74
2022/01/09 03:56:01;;;;;;;;;10.00;6.25;;;;;20.13;43.10;99622.19;5060631;28;46071;-74
2022/01/09 03:58:26;;;;;;;;;7.25;5.75;;;;;20.12;43.39;99618.69;5060507;28;47263;-74
2022/01/09 04:00:52;;;;;;;;;5.75;5.25;;;;;20.13;42.94;99623.03;5060285;28;45268;-74
2022/01/09 04:03:17;;;;;;;;;4.50;4.25;;;;;20.14;42.59;99623.91;5060194;28;51619;-74
2022/01/09 04:05:42;;;;;;;;;4.50;4.00;;;;;20.11;42.63;99624.91;5060249;28;57180;-74
2022/01/09 04:08:08;;;;;;;;;5.00;5.00;;;;;20.12;43.13;99615.19;5043682;28;46253;-74
2022/01/09 04:10:40;;;;;;;;;5.25;5.25;;;;;20.11;42.83;99609.03;5043413;28;51400;-74
2022/01/09 04:13:05;;;;;;;;;7.00;6.00;;;;;20.14;42.88;99608.88;5042057;28;45434;-74
2022/01/09 04:15:31;;;;;;;;;3.75;3.75;;;;;20.13;42.70;99599.22;5052181;28;45597;-74
2022/01/09 04:17:57;;;;;;;;;5.50;4.00;;;;;20.14;42.96;99597.41;5060794;28;62375;-74
2022/01/09 04:20:24;;;;;;;;;7.00;4.00;;;;;20.16;43.12;99595.56;5043582;28;45345;-74
2022/01/09 04:22:49;;;;;;;;;6.75;5.00;;;;;20.14;42.81;99606.22;5060300;28;45250;-74
2022/01/09 04:25:15;;;;;;;;;6.00;4.50;;;;;20.14;42.56;99614.16;5077116;28;45426;-74
2022/01/09 04:27:41;;;;;;;;;5.75;4.75;;;;;20.10;43.03;99606.47;5093942;27;45412;-74
2022/01/09 04:30:07;;;;;;;;;5.25;4.25;;;;;20.12;42.73;99613.38;5093870;27;45321;-74
2022/01/09 04:32:32;;;;;;;;;8.00;4.75;;;;;20.10;42.83;99609.97;5089959;27;45449;-74
2022/01/09 04:34:58;;;;;;;;;4.50;3.00;;;;;20.06;43.07;99611.03;5041229;28;45312;-74
2022/01/09 04:37:24;;;;;;;;;4.00;3.00;;;;;20.08;42.12;99618.94;5040358;28;56399;-74
2022/01/09 04:39:53;;;;;;;;;7.75;3.75;;;;;20.08;42.88;99629.53;5040999;28;45466;-74
2022/01/09 04:42:19;;;;;;;;;6.00;4.00;;;;;20.06;42.91;99600.44;5040949;28;45517;-74
2022/01/09 04:44:44;;;;;;;;;4.75;4.25;;;;;20.05;42.57;99611.97;5039681;28;45366;-74
2022/01/09 04:47:14;;;;;;;;;3.00;3.00;;;;;20.05;43.22;99622.56;5073138;27;46640;-74
2022/01/09 04:49:42;;;;;;;;;3.25;3.25;;;;;20.04;42.83;99623.50;5039691;28;45578;-74
2022/01/09 04:52:11;;;;;;;;;4.25;3.50;;;;;20.06;43.17;99637.50;5072808;27;45461;-74
2022/01/09 04:54:37;;;;;;;;;4.25;3.75;;;;;20.07;43.14;99630.41;5056278;28;45479;-74
2022/01/09 04:57:02;;;;;;;;;5.75;4.00;;;;;20.06;43.11;99632.22;5071997;27;45410;-74
2022/01/09 04:59:28;;;;;;;;;4.00;4.00;;;;;20.07;43.21;99630.41;5056086;28;45371;-74
2022/01/09 05:01:54;;;;;;;;;6.00;4.50;;;;;20.04;43.16;99634.09;5047460;28;45339;-74
2022/01/09 05:04:19;;;;;;;;;5.75;3.75;;;;;20.04;43.31;99634.09;5042803;28;45656;-74
2022/01/09 05:06:44;;;;;;;;;4.75;4.25;;;;;20.02;43.54;99630.66;5059095;28;56935;-74
2022/01/09 05:09:10;;;;;;;;;6.75;4.75;;;;;20.03;43.37;99630.56;5042249;28;53879;-74
2022/01/09 05:11:36;;;;;;;;;3.75;3.25;;;;;20.05;42.37;99625.19;5043019;28;45560;-74
2022/01/09 05:14:02;;;;;;;;;4.50;4.00;;;;;20.04;43.16;99644.69;5039239;28;45609;-74
2022/01/09 05:16:27;;;;;;;;;3.00;3.00;;;;;20.04;42.87;99634.09;5025595;28;48064;-74
2022/01/09 05:18:58;;;;;;;;;6.00;2.75;;;;;20.02;42.86;99631.50;5059181;28;45513;-74
2022/01/09 05:21:23;;;;;;;;;4.25;4.25;;;;;20.04;42.71;99626.13;5060550;28;45301;-74
2022/01/09 05:23:49;;;;;;;;;2.00;2.00;;;;;20.02;42.63;99626.22;5042678;28;45385;-74
2022/01/09 05:26:32;;;;;;;;;5.00;2.75;;;;;19.99;42.56;99613.13;5042086;28;47368;-74
2022/01/09 05:28:57;;;;;;;;;5.00;4.00;;;;;20.01;43.16;99621.00;5058636;28;57742;-74
2022/01/09 05:31:23;;;;;;;;;3.00;3.00;;;;;20.02;42.83;99626.22;5041912;28;52913;-73
2022/01/09 05:33:49;;;;;;;;;4.00;2.00;;;;;20.01;42.77;99605.09;5042517;28;45447;-74
2022/01/09 05:36:14;;;;;;;;;4.00;3.50;;;;;19.99;43.05;99613.13;5059214;28;45326;-74
2022/01/09 05:38:40;;;;;;;;;6.00;5.00;;;;;19.99;42.76;99606.97;5041665;28;60829;-74
2022/01/09 05:41:05;;;;;;;;;4.25;4.00;;;;;19.98;42.72;99605.22;5059073;28;45707;-74
2022/01/09 05:43:31;;;;;;;;;3.00;3.00;;;;;19.95;42.68;99598.31;5058805;28;48012;-74
2022/01/09 05:45:57;;;;;;;;;5.50;4.25;;;;;19.93;43.03;99601.97;5042242;28;47952;-74
2022/01/09 05:48:22;;;;;;;;;3.75;3.00;;;;;19.92;43.16;99608.19;5025566;28;45277;-74
2022/01/09 05:50:48;;;;;;;;;3.25;3.00;;;;;19.92;43.39;99614.34;5058576;28;57427;-74
2022/01/09 05:53:13;;;;;;;;;4.00;3.00;;;;;19.93;42.96;99604.59;5075764;28;45467;-74
2022/01/09 05:55:39;;;;;;;;;7.00;3.25;;;;;19.91;43.19;99606.47;5059866;28;46166;-74
2022/01/09 05:58:04;;;;;;;;;3.00;2.00;;;;;19.92;42.88;99609.03;5058763;28;45424;-74
2022/01/09 06:00:29;;;;;;;;;2.50;2.50;;;;;19.93;43.25;99607.25;5058463;28;45252;-74
2022/01/09 06:02:55;;;;;;;;;4.00;2.50;;;;;19.95;43.29;99610.69;5092622;27;45188;-74
2022/01/09 06:05:20;;;;;;;;;3.00;3.00;;;;;19.92;43.15;99610.84;5074855;28;65769;-74
2022/01/09 06:07:46;;;;;;;;;5.00;3.00;;;;;19.93;43.26;99612.56;5077173;28;45455;-74
2022/01/09 06:10:12;;;;;;;;;2.50;2.25;;;;;19.93;42.97;99625.78;5079205;28;45343;-74
2022/01/09 06:12:37;;;;;;;;;3.00;2.25;;;;;19.94;42.96;99627.50;5061966;28;45535;-74
2022/01/09 06:15:03;;;;;;;;;4.00;2.75;;;;;19.92;42.90;99634.66;5045368;28;45412;-74
2022/01/09 06:17:28;;;;;;;;;4.00;3.50;;;;;19.90;43.10;99637.41;5045206;28;45444;-74
2022/01/09 06:19:54;;;;;;;;;3.25;3.25;;;;;19.93;43.15;99644.34;5045527;28;45422;-74
2022/01/09 06:22:20;;;;;;;;;4.50;4.50;;;;;19.90;43.06;99634.75;5028519;28;45360;-74
2022/01/09 06:24:51;;;;;;;;;4.25;3.25;;;;;19.88;42.91;99643.66;5063551;28;45429;-74
2022/01/09 06:27:17;;;;;;;;;5.50;3.00;;;;;19.86;42.62;99653.47;5046190;28;45544;-74
2022/01/09 06:29:42;;;;;;;;;5.75;5.00;;;;;19.88;44.23;99663.06;5062165;28;45411;-74
2022/01/09 06:32:08;;;;;;;;;4.25;4.00;;;;;19.95;44.82;99653.91;5061850;28;45505;-73
2022/01/09 06:34:33;;;;;;;;;4.00;4.00;;;;;20.12;45.79;99663.72;5063228;28;45414;-74
2022/01/09 06:36:58;;;;;;;;;5.00;4.00;;;;;20.22;45.78;99653.53;5062626;28;54299;-74
2022/01/09 06:39:24;;;;;;;;;3.50;2.25;;;;;20.34;45.94;99660.91;5062910;28;45259;-74
2022/01/09 06:41:49;;;;;;;;;2.25;2.25;;;;;20.46;46.12;99662.16;5062471;28;62050;-74
2022/01/09 06:44:15;;;;;;;;;5.00;4.00;;;;;20.55;46.41;99667.84;5062894;28;50810;-74
2022/01/09 06:46:40;;;;;;;;;5.75;5.00;;;;;20.62;46.48;99663.13;5061648;28;45346;-75
2022/01/09 06:49:05;;;;;;;;;6.50;3.25;;;;;20.73;46.17;99674.03;5062158;28;45394;-75
2022/01/09 06:51:31;;;;;;;;;3.00;3.00;;;;;20.81;46.28;99674.53;5063868;28;45422;-71
2022/01/09 06:53:56;;;;;;;;;4.50;4.00;;;;;20.89;46.55;99677.66;5045756;28;47051;-77
2022/01/09 06:56:22;;;;;;;;;4.25;4.25;;;;;20.97;46.89;99647.22;5061177;28;53098;-73
2022/01/09 06:58:47;;;;;;;;;4.75;3.00;;;;;21.09;47.20;99647.44;5078455;28;56218;-76
2022/01/09 07:01:12;;;;;;;;;4.75;4.25;;;;;21.23;46.24;99644.09;5079514;28;45733;-76
2022/01/09 07:03:38;;;;;;;;;4.00;4.00;;;;;21.37;46.30;99651.34;5062678;28;51296;-76
2022/01/09 07:06:03;;;;;;;;;3.75;3.75;;;;;21.53;46.03;99654.06;5062650;28;45231;-77
2022/01/09 07:08:33;;;;;;;;;5.00;4.00;;;;;21.65;46.21;99667.56;5028197;28;45272;-72
2022/01/09 07:10:58;;;;;;;;;2.75;2.75;;;;;21.80;46.33;99663.19;5045061;28;45546;-73
2022/01/09 07:13:24;;;;;;;;;3.25;2.50;;;;;21.94;45.42;99667.78;5027727;28;49939;-75
2022/01/09 07:15:49;;;;;;;;;4.00;3.00;;;;;22.05;46.00;99659.19;5060963;28;49332;-76
2022/01/09 07:18:15;;;;;;;;;4.00;4.00;;;;;22.15;46.29;99671.06;5044160;28;45335;-73
2022/01/09 07:20:40;;;;;;;;;3.75;3.75;;;;;22.19;45.96;99665.50;5061184;28;56006;-72
2022/01/09 07:23:05;;;;;;;;;4.25;3.25;;;;;22.23;45.26;99663.53;5062289;28;45646;-75
2022/01/09 07:25:31;;;;;;;;;3.25;3.25;;;;;22.22;45.04;99664.47;5044370;28;45279;-72
2022/01/09 07:27:58;;;;;;;;;7.50;5.00;;;;;22.21;45.26;99660.97;5044211;28;45499;-71
2022/01/09 07:30:26;;;;;;;;;4.75;2.50;;;;;22.19;45.10;99662.00;5044294;28;45540;-74
2022/01/09 07:32:51;;;;;;;;;4.50;3.50;;;;;22.17;45.99;99663.88;5044410;28;47205;-75
2022/01/09 07:35:17;;;;;;;;;10.00;4.00;;;;;22.16;45.88;99663.03;5062329;28;45290;-72
2022/01/09 07:37:42;;;;;;;;;7.00;3.25;;;;;22.11;45.66;99656.25;5062132;28;47624;-73
2022/01/09 07:40:08;;;;;;;;;6.50;4.00;;;;;22.11;45.19;99659.75;5062169;28;45417;-73
2022/01/09 07:42:33;;;;;;;;;6.00;3.00;;;;;22.07;45.64;99647.59;5043792;28;45440;-73
2022/01/09 07:44:59;;;;;;;;;4.50;3.00;;;;;22.07;45.32;99660.00;5026685;28;56626;-73
2022/01/09 07:47:25;;;;;;;;;4.75;3.00;;;;;22.05;45.56;99660.06;5027528;28;45299;-72
2022/01/09 07:49:50;;;;;;;;;4.25;3.00;;;;;22.03;45.69;99661.94;5062086;28;45349;-72
2022/01/09 07:52:15;;;;;;;;;5.00;3.00;;;;;22.01;45.09;99680.63;5060119;28;59176;-73
2022/01/09 07:54:41;;;;;;;;;3.25;3.25;;;;;21.99;45.46;99687.84;5059798;28;58390;-72
2022/01/09 07:57:06;;;;;;;;;7.00;4.25;;;;;21.95;45.50;99675.66;5061823;28;45208;-72
2022/01/09 07:59:32;;;;;;;;;4.00;4.00;;;;;21.97;45.07;99687.03;5060452;28;45594;-72
2022/01/09 08:01:57;;;;;;;;;8.75;6.00;;;;;21.97;45.65;99692.34;5061565;28;45206;-72
2022/01/09 08:04:22;;;;;;;;;4.00;2.25;;;;;21.97;45.32;99696.81;5061266;28;61463;-72
2022/01/09 08:06:48;;;;;;;;;7.75;4.25;;;;;21.96;45.26;99692.44;5061771;28;45409;-72
2022/01/09 08:09:13;;;;;;;;;4.50;3.00;;;;;21.92;45.15;99688.25;5043389;28;51767;-72
2022/01/09 08:11:38;;;;;;;;;3.75;3.50;;;;;21.90;45.33;99680.38;5061679;28;45493;-72
2022/01/09 08:14:04;;;;;;;;;3.00;3.00;;;;;21.89;45.00;99659.19;5060976;28;59800;-72
2022/01/09 08:16:29;;;;;;;;;6.50;4.25;;;;;21.87;44.83;99661.94;5061194;28;51068;-72
2022/01/09 08:18:55;;;;;;;;;7.00;4.00;;;;;21.87;45.42;99661.06;5061480;28;45476;-72
2022/01/09 08:21:20;;;;;;;;;6.75;4.25;;;;;21.87;45.11;99679.66;5059993;28;47129;-72
2022/01/09 08:23:49;;;;;;;;;8.00;5.50;;;;;21.84;45.22;99675.38;5061235;28;55197;-72
2022/01/09 08:26:18;;;;;;;;;5.00;4.75;;;;;21.85;44.93;99689.53;5077057;28;45514;-74
2022/01/09 08:28:47;;;;;;;;;5.25;4.00;;;;;21.83;45.30;99686.09;5061592;28;45243;-72
2022/01/09 08:31:13;;;;;;;;;5.75;4.75;;;;;21.83;45.15;99678.13;5061016;28;45594;-72
2022/01/09 08:33:38;;;;;;;;;4.00;4.00;;;;;21.82;45.50;99679.94;5060143;28;46054;-72
2022/01/09 08:36:04;;;;;;;;;4.75;4.25;;;;;21.86;45.37;99686.78;5043429;28;45323;-72
2022/01/09 08:38:30;;;;;;;;;5.50;3.25;;;;;21.85;45.75;99690.38;5043241;28;45276;-71
2022/01/09 08:40:55;;;;;;;;;6.50;5.00;;;;;21.86;45.37;99684.13;5043033;28;47602;-72
2022/01/09 08:43:20;;;;;;;;;3.75;3.75;;;;;21.85;45.39;99684.22;5043336;28;45417;-71
2022/01/09 08:45:46;;;;;;;;;7.00;4.00;;;;;21.86;46.28;99677.94;5059738;28;45878;-72
2022/01/09 08:48:11;;;;;;;;;3.50;2.75;;;;;21.87;46.38;99666.38;5042551;28;62387;-72
2022/01/09 08:50:37;;;;;;;;;4.50;3.75;;;;;21.87;46.83;99661.06;5042830;28;46743;-72
2022/01/09 08:53:02;;;;;;;;;3.00;2.75;;;;;21.87;47.03;99666.38;5042641;28;45359;-80
2022/01/09 08:55:28;;;;;;;;;7.75;3.50;;;;;21.84;46.75;99664.75;5059859;28;45449;-76
2022/01/09 08:57:53;;;;;;;;;5.50;3.00;;;;;21.88;46.49;99668.94;5060349;28;62337;-72
2022/01/09 09:00:18;;;;;;;;;5.00;2.50;;;;;21.91;46.15;99667.94;5060080;28;63241;-72
2022/01/09 09:02:44;;;;;;;;;3.00;3.00;;;;;21.92;46.19;99659.88;5059394;28;45505;-79
2022/01/09 09:05:10;;;;;;;;;4.75;4.50;;;;;21.93;45.73;99669.56;5042946;28;45260;-75
2022/01/09 09:07:35;;;;;;;;;2.00;2.00;;;;;21.92;45.80;99669.66;5060937;28;45176;-72
2022/01/09 09:10:04;;;;;;;;;4.25;4.25;;;;;21.91;45.38;99678.56;5060420;28;45536;-72
2022/01/09 09:12:29;;;;;;;;;4.75;3.75;;;;;21.93;45.29;99674.03;5059911;28;45441;-72
2022/01/09 09:14:55;;;;;;;;;9.00;2.00;;;;;21.94;45.33;99681.91;5042547;28;45396;-72
2022/01/09 09:17:20;;;;;;;;;6.00;4.25;;;;;21.97;44.92;99695.00;5042848;28;45478;-72
2022/01/09 09:19:46;;;;;;;;;3.00;3.00;;;;;21.96;45.08;99695.09;5042240;28;52016;-72
2022/01/09 09:22:11;;;;;;;;;2.00;2.00;;;;;21.95;45.36;99693.38;5059374;28;45392;-72
2022/01/09 09:24:37;;;;;;;;;3.00;3.00;;;;;21.93;45.27;99690.81;5025488;28;48714;-72
2022/01/09 09:27:03;;;;;;;;;4.00;2.00;;;;;21.93;44.80;99696.13;5042778;28;45547;-71
2022/01/09 09:29:28;;;;;;;;;6.00;4.00;;;;;21.92;45.37;99704.19;5042289;28;46227;-72
2022/01/09 09:31:54;;;;;;;;;6.50;2.25;;;;;21.91;45.38;99713.09;5059276;28;45258;-72
2022/01/09 09:34:20;;;;;;;;;4.25;3.00;;;;;21.89;45.14;99715.84;5060175;28;52476;-72
2022/01/09 09:36:45;;;;;;;;;3.75;2.25;;;;;21.89;45.02;99705.22;5059195;28;45266;-72
2022/01/09 09:39:12;;;;;;;;;5.50;2.75;;;;;21.87;45.14;99704.44;5042011;28;45497;-72
2022/01/09 09:41:39;;;;;;;;;4.00;2.00;;;;;21.87;45.19;99711.53;5025418;28;45386;-72
2022/01/09 09:44:07;;;;;;;;;4.50;3.75;;;;;21.86;44.59;99699.19;5025658;28;45336;-72
2022/01/09 09:46:33;;;;;;;;;5.00;2.50;;;;;21.85;44.83;99694.84;5026435;28;45480;-72
2022/01/09 09:48:58;;;;;;;;;6.00;4.00;;;;;21.84;44.61;99701.94;5042129;28;46130;-72
2022/01/09 09:51:24;;;;;;;;;2.75;2.00;;;;;21.84;44.61;99699.28;5042275;28;45233;-72
2022/01/09 09:53:50;;;;;;;;;5.50;4.00;;;;;21.84;44.89;99715.22;5042016;28;45317;-72
2022/01/09 09:56:15;;;;;;;;;3.00;3.00;;;;;21.82;44.75;99725.09;5042062;28;45596;-72
2022/01/09 09:58:41;;;;;;;;;3.25;2.00;;;;;21.83;44.64;99725.94;5041833;28;48122;-72
2022/01/09 10:01:08;;;;;;;;;3.00;3.00;;;;;21.83;44.43;99728.59;5041733;28;46671;-72
2022/01/09 10:03:33;;;;;;;;;5.75;5.00;;;;;21.82;44.68;99717.13;5058680;28;45327;-72
2022/01/09 10:05:59;;;;;;;;;2.00;2.00;;;;;21.80;44.80;99729.59;5041493;28;62114;-72
2022/01/09 10:08:35;;;;;;;;;2.50;2.50;;;;;21.81;44.76;99741.09;5041857;28;47401;-72
2022/01/09 10:11:11;;;;;;;;;5.00;3.00;;;;;21.81;44.37;99743.75;5042117;28;45354;-76
2022/01/09 10:13:36;;;;;;;;;4.75;3.00;;;;;21.80;44.81;99734.91;5021997;28;45264;-77
2022/01/09 10:16:02;;;;;;;;;7.25;5.50;;;;;21.80;44.08;99726.94;5069807;28;59953;-73
2022/01/09 10:18:44;;;;;;;;;7.00;5.00;;;;;21.77;44.23;99719.16;5041731;28;48119;-70
2022/01/09 10:21:17;;;;;;;;;5.75;4.50;;;;;21.79;44.30;99721.72;5041829;28;45406;-71
2022/01/09 10:24:16;;;;;;;;;4.25;4.25;;;;;21.75;44.22;99723.69;5025884;28;45564;-73
2022/01/09 10:26:48;;;;;;;;;6.25;4.25;;;;;21.76;44.16;99721.88;5060954;28;45604;-72
2022/01/09 10:29:13;;;;;;;;;7.00;7.00;;;;;21.75;43.93;99733.47;5041426;28;46294;-72
2022/01/09 10:31:45;;;;;;;;;6.75;6.25;;;;;21.76;43.83;99743.13;5041454;28;50511;-73
2022/01/09 10:34:11;;;;;;;;;5.00;4.50;;;;;21.75;43.87;99733.47;5042053;28;45345;-73
2022/01/09 10:36:54;;;;;;;;;6.50;3.50;;;;;21.75;44.21;99755.56;5041868;28;45565;-73
2022/01/09 10:39:28;;;;;;;;;6.00;4.00;;;;;21.73;44.24;99744.16;5041025;28;48047;-75
2022/01/09 10:41:58;;;;;;;;;5.75;5.25;;;;;21.75;44.17;99742.28;5042499;28;45289;-73
2022/01/09 10:44:27;;;;;;;;;5.75;4.25;;;;;21.72;44.39;99737.13;5041409;28;45411;-73
2022/01/09 10:47:15;;;;;;;;;4.50;3.75;;;;;21.74;44.05;99740.56;5059231;28;45536;-78
2022/01/09 10:49:44;;;;;;;;;7.75;4.00;;;;;21.74;44.66;99740.56;5059434;28;46168;-79
2022/01/09 10:52:12;;;;;;;;;6.00;2.75;;;;;21.76;44.38;99745.78;5059219;28;45385;-72
2022/01/09 10:54:40;;;;;;;;;5.25;3.00;;;;;21.73;44.49;99746.81;5062197;28;45248;-73
2022/01/09 10:57:16;;;;;;;;;9.00;6.00;;;;;21.75;44.82;99757.34;5061299;28;45551;-74
2022/01/09 10:59:42;;;;;;;;;14.00;9.00;;;;;21.76;44.59;99753.75;5045032;28;47165;-72
2022/01/09 11:02:09;;;;;;;;;9.50;7.50;;;;;21.76;45.20;99759.06;5028000;28;45498;-72
2022/01/09 11:04:35;;;;;;;;;11.75;8.00;;;;;21.80;45.43;99758.81;5045105;28;45555;-73
2022/01/09 11:07:00;;;;;;;;;5.25;5.25;;;;;21.81;46.39;99759.69;5027915;28;45411;-73
2022/01/09 11:09:27;;;;;;;;;9.75;7.00;;;;;21.87;47.46;99765.53;5044302;28;46355;-74
2022/01/09 11:11:54;;;;;;;;;33.00;29.75;;;;;21.94;49.60;99763.41;5061636;28;45266;-70
2022/01/09 11:14:20;;;;;;;;;39.25;33.25;;;;;21.99;49.39;99762.25;5062315;28;45475;-75
2022/01/09 11:16:51;;;;;;;;;23.25;17.75;;;;;22.03;48.67;99760.25;5044652;28;45475;-73
2022/01/09 11:19:17;;;;;;;;;14.50;11.75;;;;;22.11;48.18;99760.75;5061053;28;46566;-72
2022/01/09 11:21:45;;;;;;;;;9.75;8.50;;;;;22.16;47.89;99749.88;5062507;28;45315;-76
2022/01/09 11:24:10;;;;;;;;;12.50;8.25;;;;;22.23;47.55;99753.91;5044346;28;45279;-75
2022/01/09 11:27:09;;;;;;;;;7.25;5.50;;;;;22.25;47.43;99760.88;5062424;28;45503;-72
2022/01/09 11:30:00;;;;;;;;;7.50;6.00;;;;;22.29;47.37;99754.44;5061926;28;46299;-76